createdAt,value
2022-10-18T00:02:14.395Z,70.64
2022-10-18T00:04:47.236Z,70.53
2022-10-18T00:07:20.897Z,70.39
2022-10-18T00:09:54.995Z,70.22
2022-10-18T00:12:27.987Z,70.04
2022-10-18T00:15:01.237Z,70.01
2022-10-18T00:17:35.410Z,69.65
2022-10-18T00:20:10.807Z,69.52
2022-10-18T00:22:44.583Z,69.38
2022-10-18T00:25:18.898Z,69.15
2022-10-18T00:27:52.809Z,69.03
2022-10-18T00:30:26.690Z,68.85
2022-10-18T00:33:00.312Z,68.86
2022-10-18T00:35:35.626Z,68.51
2022-10-18T00:38:08.870Z,68.55
2022-10-18T00:40:42.317Z,68.44
2022-10-18T00:43:19.834Z,68.43
2022-10-18T00:45:53.303Z,68.18
2022-10-18T00:48:27.403Z,68.12
2022-10-18T00:51:01.010Z,68.03
2022-10-18T00:53:34.803Z,67.85
2022-10-18T00:56:09.154Z,67.90
2022-10-18T00:58:43.678Z,67.87
2022-10-18T01:01:16.877Z,67.84
2022-10-18T01:03:50.814Z,67.71
2022-10-18T01:06:24.594Z,67.70
2022-10-18T01:09:16.251Z,67.66
2022-10-18T01:12:04.075Z,67.54
2022-10-18T01:14:49.394Z,67.49
2022-10-18T01:17:29.818Z,67.48
2022-10-18T01:20:47.830Z,67.33
2022-10-18T01:23:30.232Z,67.26
2022-10-18T01:26:15.896Z,67.10
2022-10-18T01:29:01.167Z,67.12
2022-10-18T01:31:41.632Z,67.04
2022-10-18T01:34:18.403Z,66.92
2022-10-18T01:36:55.296Z,66.93
2022-10-18T01:39:35.129Z,67.01
2022-10-18T01:42:12.304Z,66.81
2022-10-18T01:44:49.654Z,66.71
2022-10-18T01:47:25.053Z,66.70
2022-10-18T01:50:04.241Z,66.67
2022-10-18T01:52:37.993Z,66.56
2022-10-18T01:55:11.858Z,66.67
2022-10-18T01:57:48.243Z,66.66
2022-10-18T02:00:28.397Z,66.37
2022-10-18T02:03:11.919Z,66.50
2022-10-18T02:05:49.847Z,66.38
2022-10-18T02:08:30.924Z,66.29
2022-10-18T02:11:07.244Z,66.21
2022-10-18T02:13:43.570Z,66.12
2022-10-18T02:16:20.951Z,66.09
2022-10-18T02:18:59.563Z,66.07
2022-10-18T02:21:34.610Z,66.08
2022-10-18T02:24:10.386Z,65.94
2022-10-18T02:26:44.103Z,65.83
2022-10-18T02:29:17.698Z,65.63
2022-10-18T02:31:54.174Z,65.66
2022-10-18T02:34:31.420Z,65.59
2022-10-18T02:37:05.599Z,65.45
2022-10-18T02:39:42.103Z,65.37
2022-10-18T02:42:15.690Z,65.32
2022-10-18T02:44:49.729Z,65.26
2022-10-18T02:47:22.757Z,65.10
2022-10-18T02:49:55.997Z,65.05
2022-10-18T02:52:29.278Z,65.01
2022-10-18T02:55:02.883Z,64.90
2022-10-18T02:57:36.149Z,64.86
2022-10-18T03:00:11.527Z,64.97
2022-10-18T03:02:44.820Z,64.98
2022-10-18T03:05:18.073Z,64.74
2022-10-18T03:07:51.757Z,64.73
2022-10-18T03:10:25.358Z,64.66
2022-10-18T03:12:58.970Z,64.68
2022-10-18T03:15:31.999Z,64.62
2022-10-18T03:18:05.517Z,64.67
2022-10-18T03:20:38.976Z,64.72
2022-10-18T03:23:12.541Z,64.62
2022-10-18T03:25:46.512Z,64.59
2022-10-18T03:28:20.369Z,64.58
2022-10-18T03:30:53.593Z,64.63
2022-10-18T03:33:27.100Z,64.54
2022-10-18T03:36:00.827Z,64.46
2022-10-18T03:38:35.113Z,64.52
2022-10-18T03:41:09.027Z,64.48
2022-10-18T03:43:41.997Z,64.39
2022-10-18T03:46:15.429Z,64.31
2022-10-18T03:48:49.070Z,64.33
2022-10-18T03:51:22.875Z,64.32
2022-10-18T03:53:57.032Z,64.24
2022-10-18T03:56:30.284Z,64.29
2022-10-18T03:59:04.793Z,64.19
2022-10-18T04:01:38.351Z,64.09
2022-10-18T04:04:11.922Z,64.03
2022-10-18T04:06:45.686Z,63.93
2022-10-18T04:09:19.358Z,63.90
2022-10-18T04:11:54.529Z,63.89
2022-10-18T04:14:28.143Z,63.86
2022-10-18T04:17:01.523Z,63.87
2022-10-18T04:19:35.132Z,63.84
2022-10-18T04:22:08.493Z,63.80
2022-10-18T04:24:41.805Z,63.88
2022-10-18T04:27:15.230Z,63.83
2022-10-18T04:29:49.227Z,63.71
2022-10-18T04:32:22.618Z,63.60
2022-10-18T04:34:57.211Z,63.49
2022-10-18T04:37:30.698Z,63.61
2022-10-18T04:40:05.549Z,63.55
2022-10-18T04:42:38.880Z,63.42
2022-10-18T04:45:13.529Z,63.36
2022-10-18T04:47:47.043Z,63.27
2022-10-18T04:50:21.170Z,63.26
2022-10-18T04:52:54.637Z,63.33
2022-10-18T04:55:28.103Z,63.23
2022-10-18T04:58:01.604Z,63.25
2022-10-18T05:00:39.824Z,63.27
2022-10-18T05:03:15.588Z,63.26
2022-10-18T05:06:04.184Z,63.31
2022-10-18T05:08:38.799Z,63.26
2022-10-18T05:11:12.392Z,63.10
2022-10-18T05:13:47.279Z,63.11
2022-10-18T05:16:23.751Z,63.16
2022-10-18T05:18:56.788Z,63.21
2022-10-18T05:21:30.804Z,63.19
2022-10-18T05:24:04.088Z,63.17
2022-10-18T05:26:37.492Z,63.09
2022-10-18T05:29:11.402Z,62.97
2022-10-18T05:31:45.038Z,62.91
2022-10-18T05:34:18.412Z,62.99
2022-10-18T05:36:51.854Z,62.84
2022-10-18T05:39:25.700Z,62.75
2022-10-18T05:42:00.038Z,62.87
2022-10-18T05:44:33.680Z,62.90
2022-10-18T05:47:07.154Z,62.70
2022-10-18T05:49:40.344Z,62.57
2022-10-18T05:52:13.759Z,62.54
2022-10-18T05:54:47.595Z,62.47
2022-10-18T05:57:21.307Z,62.41
2022-10-18T05:59:54.679Z,62.37
2022-10-18T06:02:27.857Z,62.14
2022-10-18T06:05:02.178Z,62.02
2022-10-18T06:07:35.451Z,61.94
2022-10-18T06:10:10.077Z,61.92
2022-10-18T06:12:43.205Z,61.65
2022-10-18T06:15:16.889Z,61.35
2022-10-18T06:17:50.325Z,61.43
2022-10-18T06:20:23.696Z,61.33
2022-10-18T06:22:57.520Z,61.19
2022-10-18T06:25:30.879Z,61.03
2022-10-18T06:28:07.744Z,60.87
2022-10-18T06:30:43.424Z,60.79
2022-10-18T06:33:16.712Z,60.72
2022-10-18T06:35:58.166Z,60.60
2022-10-18T06:38:31.903Z,60.39
2022-10-18T06:41:06.015Z,60.08
2022-10-18T06:43:39.468Z,59.86
2022-10-18T06:46:12.883Z,59.97
2022-10-18T06:48:46.319Z,59.85
2022-10-18T06:51:20.735Z,59.58
2022-10-18T06:54:06.167Z,59.46
2022-10-18T06:56:47.760Z,59.24
2022-10-18T06:59:21.545Z,59.08
2022-10-18T07:01:55.260Z,58.88
2022-10-18T07:04:31.647Z,58.76
2022-10-18T07:07:05.975Z,58.25
2022-10-18T07:09:39.282Z,58.13
2022-10-18T07:12:15.856Z,58.00
2022-10-18T07:14:50.136Z,57.68
2022-10-18T07:17:23.468Z,57.64
2022-10-18T07:19:57.362Z,57.38
2022-10-18T07:22:30.857Z,57.32
2022-10-18T07:25:04.558Z,57.11
2022-10-18T07:27:42.593Z,57.27
2022-10-18T07:30:16.007Z,57.15
2022-10-18T07:32:49.233Z,56.72
2022-10-18T07:35:22.943Z,56.71
2022-10-18T07:37:57.259Z,56.61
2022-10-18T07:40:30.715Z,56.29
2022-10-18T07:43:05.023Z,56.28
2022-10-18T07:45:38.640Z,56.28
2022-10-18T07:48:11.740Z,55.89
2022-10-18T07:50:45.118Z,55.29
2022-10-18T07:53:18.894Z,54.14
2022-10-18T07:55:52.216Z,53.91
2022-10-18T07:58:25.177Z,53.63
2022-10-18T08:00:58.912Z,53.27
2022-10-18T08:03:32.301Z,52.72
2022-10-18T08:06:06.131Z,52.56
2022-10-18T08:08:41.277Z,52.09
2022-10-18T08:11:16.733Z,52.38
2022-10-18T08:13:50.554Z,52.25
2022-10-18T08:16:25.212Z,52.35
2022-10-18T08:19:00.470Z,52.61
2022-10-18T08:21:33.699Z,52.78
2022-10-18T08:24:07.583Z,52.81
2022-10-18T08:26:41.110Z,52.97
2022-10-18T08:29:32.009Z,52.83
2022-10-18T08:32:05.319Z,52.67
2022-10-18T08:37:17.110Z,52.41
2022-10-18T08:39:51.487Z,52.75
2022-10-18T08:42:47.316Z,52.98
2022-10-18T08:45:37.319Z,53.47
2022-10-18T08:48:23.703Z,53.29
2022-10-18T08:50:59.279Z,52.70
2022-10-18T08:53:40.119Z,52.60
2022-10-18T08:56:16.087Z,52.25
2022-10-18T08:58:49.430Z,52.01
2022-10-18T09:01:36.612Z,51.57
2022-10-18T09:04:27.359Z,50.76
2022-10-18T09:07:17.787Z,50.85
2022-10-18T09:10:01.475Z,50.61
2022-10-18T09:12:53.827Z,50.36
2022-10-18T09:15:37.028Z,50.62
2022-10-18T09:18:26.444Z,50.48
2022-10-18T09:21:01.511Z,50.51
2022-10-18T09:23:44.473Z,50.51
2022-10-18T09:26:21.031Z,50.56
2022-10-18T09:29:07.431Z,50.77
2022-10-18T09:31:49.808Z,50.90
2022-10-18T09:34:33.026Z,50.90
2022-10-18T09:37:06.970Z,50.72
2022-10-18T09:39:42.595Z,50.77
2022-10-18T09:42:26.985Z,50.57
2022-10-18T09:45:05.490Z,50.73
2022-10-18T09:47:40.644Z,50.81
2022-10-18T09:50:25.861Z,50.59
2022-10-18T09:53:07.805Z,50.56
2022-10-18T09:55:52.047Z,50.86
2022-10-18T09:58:28.339Z,51.07
2022-10-18T10:01:01.768Z,50.91
2022-10-18T10:03:35.227Z,50.64
2022-10-18T10:06:26.241Z,51.08
2022-10-18T10:09:02.494Z,51.15
2022-10-18T10:11:41.783Z,50.94
2022-10-18T10:14:19.750Z,51.09
2022-10-18T10:16:55.487Z,50.48
2022-10-18T10:19:33.220Z,50.19
2022-10-18T10:22:11.446Z,50.39
2022-10-18T10:24:51.216Z,50.71
2022-10-18T10:27:31.991Z,50.42
2022-10-18T10:30:22.658Z,49.85
2022-10-18T10:32:57.573Z,49.26
2022-10-18T10:38:30.923Z,49.17
2022-10-18T10:41:04.478Z,48.83
2022-10-18T10:43:40.550Z,48.96
2022-10-18T10:46:16.879Z,49.26
2022-10-18T10:49:15.387Z,48.82
2022-10-18T10:52:08.875Z,48.26
2022-10-18T10:54:53.898Z,47.74
2022-10-18T10:57:32.089Z,47.88
2022-10-18T11:00:05.928Z,47.37
2022-10-18T11:02:40.137Z,46.66
2022-10-18T11:05:26.948Z,46.59
2022-10-18T11:08:04.593Z,45.82
2022-10-18T11:10:49.133Z,46.01
2022-10-18T11:13:31.003Z,46.17
2022-10-18T11:16:14.113Z,46.01
2022-10-18T11:18:51.588Z,46.11
2022-10-18T11:21:29.460Z,45.90
2022-10-18T11:24:05.517Z,45.84
2022-10-18T11:26:53.807Z,45.61
2022-10-18T11:29:46.277Z,45.66
2022-10-18T11:32:27.698Z,44.76
2022-10-18T11:35:13.919Z,44.43
2022-10-18T11:38:06.644Z,44.61
2022-10-18T11:41:06.827Z,44.57
2022-10-18T11:44:02.114Z,44.37
2022-10-18T11:46:57.813Z,44.54
2022-10-18T11:49:50.237Z,44.57
2022-10-18T11:52:34.447Z,44.97
2022-10-18T11:55:32.079Z,45.45
2022-10-18T11:58:25.095Z,45.29
2022-10-18T12:01:05.295Z,45.09
2022-10-18T12:03:56.474Z,45.38
2022-10-18T12:06:35.423Z,45.97
2022-10-18T12:09:17.789Z,46.32
2022-10-18T12:11:56.664Z,46.38
2022-10-18T12:14:37.230Z,46.41
2022-10-18T12:17:41.689Z,46.95
2022-10-18T12:20:20.630Z,46.90
2022-10-18T12:23:02.372Z,46.74
2022-10-18T12:25:38.396Z,47.23
2022-10-18T12:28:25.149Z,47.69
2022-10-18T12:31:08.001Z,47.84
2022-10-18T12:33:46.742Z,48.00
2022-10-18T12:36:35.005Z,48.29
2022-10-18T12:39:12.702Z,48.73
2022-10-18T12:41:50.137Z,48.81
2022-10-18T12:44:30.094Z,49.06
2022-10-18T12:47:05.502Z,49.22
2022-10-18T12:49:42.702Z,49.41
2022-10-18T12:52:28.319Z,49.80
2022-10-18T12:55:35.240Z,50.20
2022-10-18T13:01:10.377Z,50.89
2022-10-18T13:04:03.170Z,51.13
2022-10-18T13:07:19.174Z,51.40
2022-10-18T13:10:35.321Z,51.65
2022-10-18T13:13:40.150Z,52.12
2022-10-18T13:16:28.205Z,52.38
2022-10-18T13:19:13.398Z,52.78
2022-10-18T13:21:53.241Z,53.01
2022-10-18T13:24:35.772Z,52.95
2022-10-18T13:27:36.250Z,53.27
2022-10-18T13:30:31.815Z,53.53
2022-10-18T13:33:22.644Z,53.60
2022-10-18T13:35:58.941Z,53.73
2022-10-18T13:38:47.470Z,53.83
2022-10-18T13:44:21.355Z,54.24
2022-10-18T13:47:36.380Z,54.26
2022-10-18T13:50:33.741Z,54.37
2022-10-18T13:53:40.225Z,54.69
2022-10-18T13:56:47.877Z,54.92
2022-10-18T13:59:40.821Z,55.01
2022-10-18T14:02:51.727Z,55.29
2022-10-18T14:05:58.491Z,55.51
2022-10-18T14:08:38.866Z,55.66
2022-10-18T14:11:24.455Z,55.81
2022-10-18T14:14:06.081Z,55.86
2022-10-18T14:16:45.419Z,55.86
2022-10-18T14:19:26.010Z,56.09
2022-10-18T14:22:06.586Z,56.29
2022-10-18T14:24:46.449Z,56.42
2022-10-18T14:27:25.377Z,56.46
2022-10-18T14:30:16.230Z,56.63
2022-10-18T14:32:50.959Z,56.82
2022-10-18T14:35:33.716Z,56.83
2022-10-18T14:38:15.642Z,56.95
2022-10-18T14:40:48.796Z,56.99
2022-10-18T14:43:23.000Z,57.16
2022-10-18T14:45:57.029Z,57.31
2022-10-18T14:48:30.395Z,57.13
2022-10-18T14:51:05.341Z,57.30
2022-10-18T14:53:42.211Z,57.44
2022-10-18T14:56:24.487Z,57.81
2022-10-18T14:58:59.593Z,57.95
2022-10-18T15:01:36.625Z,58.14
2022-10-18T15:04:13.358Z,58.15
2022-10-18T15:06:47.942Z,58.41
2022-10-18T15:09:26.269Z,58.79
2022-10-18T15:12:01.029Z,58.82
2022-10-18T15:14:35.494Z,59.07
2022-10-18T15:17:15.881Z,59.18
2022-10-18T15:20:03.290Z,59.45
2022-10-18T15:22:39.244Z,59.79
2022-10-18T15:25:24.325Z,60.02
2022-10-18T15:28:00.697Z,60.29
2022-10-18T15:30:42.826Z,60.64
2022-10-18T15:33:26.157Z,60.92
2022-10-18T15:36:09.459Z,61.22
2022-10-18T15:38:45.122Z,61.25
2022-10-18T15:41:49.122Z,61.63
2022-10-18T15:44:32.502Z,61.96
2022-10-18T15:47:23.250Z,62.47
2022-10-18T15:49:58.752Z,62.93
2022-10-18T15:52:45.292Z,63.27
2022-10-18T15:55:47.970Z,63.72
2022-10-18T15:58:27.653Z,64.14
2022-10-18T16:01:04.674Z,64.72
2022-10-18T16:03:40.099Z,65.22
2022-10-18T16:06:16.004Z,65.57
2022-10-18T16:08:53.286Z,65.84
2022-10-18T16:11:27.576Z,66.15
2022-10-18T16:14:00.881Z,66.47
2022-10-18T16:16:33.916Z,66.77
2022-10-18T16:19:07.060Z,67.02
2022-10-18T16:21:41.540Z,67.39
2022-10-18T16:24:15.033Z,67.58
2022-10-18T16:26:50.017Z,67.84
2022-10-18T16:29:27.269Z,68.12
2022-10-18T16:32:01.554Z,68.05
2022-10-18T16:34:35.349Z,68.22
2022-10-18T16:37:09.076Z,68.42
2022-10-18T16:39:42.461Z,68.50
2022-10-18T16:42:15.920Z,68.52
2022-10-18T16:44:49.514Z,68.65
2022-10-18T16:47:22.880Z,68.95
2022-10-18T16:49:56.481Z,69.29
2022-10-18T16:52:29.896Z,69.37
2022-10-18T16:55:04.621Z,69.45
2022-10-18T16:57:38.639Z,69.73
2022-10-18T17:00:19.920Z,69.89
2022-10-18T17:02:53.906Z,69.95
2022-10-18T17:05:28.019Z,70.04
2022-10-18T17:08:01.666Z,70.22
2022-10-18T17:10:35.711Z,70.31
2022-10-18T17:13:09.419Z,70.42
2022-10-18T17:15:43.506Z,70.74
2022-10-18T17:18:19.585Z,70.96
2022-10-18T17:20:53.749Z,70.96
2022-10-18T17:23:26.951Z,71.00
2022-10-18T17:26:08.664Z,70.92
2022-10-18T17:28:56.093Z,71.07
2022-10-18T17:31:30.656Z,71.22
2022-10-18T17:34:06.185Z,70.92
2022-10-18T17:36:41.258Z,70.69
2022-10-18T17:39:16.072Z,70.75
2022-10-18T17:41:51.580Z,70.81
2022-10-18T17:44:26.777Z,70.62
2022-10-18T17:47:00.742Z,70.38
2022-10-18T17:49:35.464Z,70.31
2022-10-18T17:52:09.943Z,70.38
2022-10-18T17:54:43.663Z,70.53
2022-10-18T17:57:17.177Z,70.75
2022-10-18T18:00:01.471Z,70.93
2022-10-18T18:02:41.098Z,71.15
2022-10-18T18:05:16.763Z,71.36
2022-10-18T18:07:51.778Z,71.63
2022-10-18T18:10:26.423Z,71.78
2022-10-18T18:13:00.116Z,71.99
2022-10-18T18:15:34.851Z,71.70
2022-10-18T18:18:09.075Z,71.52
2022-10-18T18:20:54.470Z,71.56
2022-10-18T18:23:30.473Z,71.85
2022-10-18T18:26:04.897Z,71.73
2022-10-18T18:28:39.906Z,71.70
2022-10-18T18:31:17.423Z,71.62
2022-10-18T18:33:52.257Z,71.48
2022-10-18T18:36:29.961Z,71.78
2022-10-18T18:39:05.965Z,71.97
2022-10-18T18:41:40.023Z,71.96
2022-10-18T18:44:14.857Z,72.00
2022-10-18T18:46:48.880Z,72.10
2022-10-18T18:49:23.068Z,72.08
2022-10-18T18:51:57.877Z,71.95
2022-10-18T18:54:32.533Z,72.04
2022-10-18T18:57:07.091Z,72.15
2022-10-18T18:59:41.719Z,72.11
2022-10-18T19:02:15.673Z,72.20
2022-10-18T19:04:51.405Z,72.22
2022-10-18T19:07:25.650Z,72.21
2022-10-18T19:10:00.144Z,72.39
2022-10-18T19:12:34.699Z,72.55
2022-10-18T19:15:11.079Z,72.52
2022-10-18T19:17:45.121Z,72.56
2022-10-18T19:20:19.825Z,72.60
2022-10-18T19:22:54.104Z,72.63
2022-10-18T19:25:28.673Z,72.78
2022-10-18T19:28:02.626Z,72.97
2022-10-18T19:30:36.271Z,73.00
2022-10-18T19:33:10.569Z,72.89
2022-10-18T19:35:45.724Z,72.83
2022-10-18T19:38:20.221Z,72.94
2022-10-18T19:40:54.099Z,72.94
2022-10-18T19:43:27.857Z,72.98
2022-10-18T19:46:05.302Z,73.12
2022-10-18T19:48:39.844Z,73.04
2022-10-18T19:51:19.505Z,72.99
2022-10-18T19:53:58.749Z,73.03
2022-10-18T19:56:34.908Z,72.93
2022-10-18T19:59:13.848Z,73.10
2022-10-18T20:01:48.555Z,73.20
2022-10-18T20:04:22.468Z,73.27
2022-10-18T20:06:57.113Z,73.39
2022-10-18T20:09:30.976Z,73.48
2022-10-18T20:12:05.519Z,73.80
2022-10-18T20:14:39.287Z,73.88
2022-10-18T20:17:13.895Z,73.97
2022-10-18T20:19:51.341Z,73.93
2022-10-18T20:22:24.726Z,73.90
2022-10-18T20:24:59.227Z,73.83
2022-10-18T20:27:33.758Z,73.96
2022-10-18T20:30:10.577Z,74.11
2022-10-18T20:32:45.303Z,74.10
2022-10-18T20:35:19.834Z,74.10
2022-10-18T20:37:53.399Z,74.21
2022-10-18T20:40:27.065Z,74.35
2022-10-18T20:43:03.716Z,74.48
2022-10-18T20:45:37.443Z,74.43
2022-10-18T20:48:11.123Z,74.44
2022-10-18T20:50:47.456Z,74.66
2022-10-18T20:53:22.477Z,74.62
2022-10-18T20:56:03.529Z,74.65
2022-10-18T20:58:38.502Z,74.75
2022-10-18T21:01:13.885Z,74.88
2022-10-18T21:03:49.186Z,74.97
2022-10-18T21:06:24.693Z,75.07
2022-10-18T21:09:00.782Z,75.15
2022-10-18T21:11:36.959Z,75.17
2022-10-18T21:14:12.867Z,75.37
2022-10-18T21:16:47.192Z,75.35
2022-10-18T21:19:22.559Z,75.34
2022-10-18T21:21:57.918Z,75.40
2022-10-18T21:24:32.183Z,75.50
2022-10-18T21:27:05.962Z,75.50
2022-10-18T21:29:38.924Z,75.50
2022-10-18T21:32:12.291Z,75.49
2022-10-18T21:34:45.622Z,75.50
2022-10-18T21:37:19.094Z,75.74
2022-10-18T21:39:52.963Z,75.70
2022-10-18T21:42:26.491Z,75.79
2022-10-18T21:44:59.772Z,75.94
2022-10-18T21:47:33.275Z,75.86
2022-10-18T21:50:07.392Z,75.87
2022-10-18T21:52:40.581Z,76.01
2022-10-18T21:55:14.044Z,76.24
2022-10-18T21:57:47.194Z,76.38
2022-10-18T22:00:21.505Z,76.31
2022-10-18T22:03:09.461Z,76.40
2022-10-18T22:05:43.352Z,76.29
2022-10-18T22:08:17.025Z,76.43
2022-10-18T22:10:50.541Z,76.50
2022-10-18T22:13:23.996Z,76.52
2022-10-18T22:15:57.545Z,76.49
2022-10-18T22:18:31.146Z,76.37
2022-10-18T22:21:07.044Z,76.27
2022-10-18T22:23:42.762Z,76.42
2022-10-18T22:26:18.094Z,76.43
2022-10-18T22:28:56.982Z,76.59
2022-10-18T22:31:31.931Z,76.62
2022-10-18T22:34:07.343Z,76.55
2022-10-18T22:36:40.704Z,76.40
2022-10-18T22:39:15.616Z,76.38
2022-10-18T22:41:52.471Z,76.06
2022-10-18T22:44:26.232Z,75.87
2022-10-18T22:46:59.282Z,75.84
2022-10-18T22:49:32.405Z,75.79
2022-10-18T22:52:05.476Z,75.85
2022-10-18T22:54:38.663Z,76.03
2022-10-18T22:57:12.024Z,76.04
2022-10-18T22:59:45.478Z,76.19
2022-10-18T23:02:18.503Z,76.69
2022-10-18T23:04:51.603Z,76.83
2022-10-18T23:07:24.665Z,76.75
2022-10-18T23:09:57.662Z,76.65
2022-10-18T23:12:30.896Z,76.84
2022-10-18T23:15:04.215Z,76.98
2022-10-18T23:17:37.645Z,76.94
2022-10-18T23:20:12.263Z,76.96
2022-10-18T23:22:45.275Z,76.86
2022-10-18T23:25:18.395Z,76.87
2022-10-18T23:27:51.516Z,76.88
2022-10-18T23:30:24.706Z,77.25
2022-10-18T23:32:57.780Z,77.47
2022-10-18T23:35:30.917Z,77.49
2022-10-18T23:38:03.881Z,77.63
2022-10-18T23:40:36.766Z,77.65
2022-10-18T23:43:09.708Z,77.63
2022-10-18T23:45:42.986Z,77.70
2022-10-18T23:48:16.171Z,77.70
2022-10-18T23:50:49.244Z,77.33
2022-10-18T23:53:22.884Z,77.08
2022-10-18T23:56:00.359Z,76.96
2022-10-18T23:58:35.237Z,76.90
